Wrightsville, Ohio
Current Conditions -  °F | °C
As of 2:15 PM on Friday 28 Nov 2014 (Local Time) from KFGX Reporting Station
Clear Clear  
Wind Chill: -4°   Ceiling: Unl
Heat Index:   Visibility: 10mi
Dew Point: -8°   Wind: 9mph
Humidity: 57%   Direction: 190°S
Pressure: 30.28"   Gusts: NA
Location:  38.7042°N, 83.6081°W
Report Text: KFGX 281915Z AUTO 19008KT 10SM CLR 00/M07 A3028 RMK AO2 T00011075
Loading
Personal Weather Stations






























Interactive Weather Map New forecast layout! Learn more

10-Day Weather Forecast

Advertisements
Track Severe Weather on mobile